sensor_id;sensor_type;location;lat;lon;timestamp;pressure;altitude;pressure_sealevel;temperature;humidity
9187;BME280;7273;48.902;9.410;2023-05-11T00:02:13;97820.19;;;12.62;74.37
9187;BME280;7273;48.902;9.410;2023-05-11T00:04:39;97826.56;;;12.52;74.21
9187;BME280;7273;48.902;9.410;2023-05-11T00:07:05;97830.91;;;12.53;74.36
9187;BME280;7273;48.902;9.410;2023-05-11T00:09:31;97821.34;;;12.56;74.49
9187;BME280;7273;48.902;9.410;2023-05-11T00:11:56;97829.78;;;12.54;74.73
9187;BME280;7273;48.902;9.410;2023-05-11T00:14:22;97836.09;;;12.50;75.00
9187;BME280;7273;48.902;9.410;2023-05-11T00:16:48;97824.44;;;12.49;74.92
9187;BME280;7273;48.902;9.410;2023-05-11T00:19:14;97820.13;;;12.48;75.02
9187;BME280;7273;48.902;9.410;2023-05-11T00:21:39;97823.66;;;12.49;74.79
9187;BME280;7273;48.902;9.410;2023-05-11T00:24:06;97822.63;;;12.45;74.96
9187;BME280;7273;48.902;9.410;2023-05-11T00:26:31;97828.03;;;12.45;74.55
9187;BME280;7273;48.902;9.410;2023-05-11T00:28:57;97828.03;;;12.45;74.74
9187;BME280;7273;48.902;9.410;2023-05-11T00:31:23;97825.63;;;12.43;74.94
9187;BME280;7273;48.902;9.410;2023-05-11T00:33:48;97820.78;;;12.40;75.06
9187;BME280;7273;48.902;9.410;2023-05-11T00:36:14;97812.97;;;12.39;75.25
9187;BME280;7273;48.902;9.410;2023-05-11T00:38:40;97815.16;;;12.37;75.11
9187;BME280;7273;48.902;9.410;2023-05-11T00:41:06;97815.44;;;12.35;75.09
9187;BME280;7273;48.902;9.410;2023-05-11T00:43:32;97810.25;;;12.39;74.91
9187;BME280;7273;48.902;9.410;2023-05-11T00:45:58;97817.03;;;12.36;74.92
9187;BME280;7273;48.902;9.410;2023-05-11T00:48:24;97816.88;;;12.28;75.08
9187;BME280;7273;48.902;9.410;2023-05-11T00:50:50;97814.19;;;12.28;74.97
9187;BME280;7273;48.902;9.410;2023-05-11T00:53:15;97816.63;;;12.29;74.86
9187;BME280;7273;48.902;9.410;2023-05-11T00:55:41;97816.41;;;12.26;75.04
9187;BME280;7273;48.902;9.410;2023-05-11T00:58:07;97822.84;;;12.30;75.22
9187;BME280;7273;48.902;9.410;2023-05-11T01:00:32;97816.09;;;12.27;75.19
9187;BME280;7273;48.902;9.410;2023-05-11T01:03:00;97825.63;;;12.25;74.97
9187;BME280;7273;48.902;9.410;2023-05-11T01:05:39;97811.75;;;12.26;75.06
9187;BME280;7273;48.902;9.410;2023-05-11T01:08:12;97815.38;;;12.22;75.44
9187;BME280;7273;48.902;9.410;2023-05-11T01:10:57;97815.13;;;12.18;75.74
9187;BME280;7273;48.902;9.410;2023-05-11T01:13:34;97819.19;;;12.21;75.44
9187;BME280;7273;48.902;9.410;2023-05-11T01:16:08;97820.56;;;12.18;75.45
9187;BME280;7273;48.902;9.410;2023-05-11T01:18:44;97819.78;;;12.18;75.27
9187;BME280;7273;48.902;9.410;2023-05-11T01:21:13;97816.84;;;12.14;75.61
9187;BME280;7273;48.902;9.410;2023-05-11T01:23:59;97814.19;;;12.09;75.69
9187;BME280;7273;48.902;9.410;2023-05-11T01:29:40;97821.56;;;12.03;76.02
9187;BME280;7273;48.902;9.410;2023-05-11T01:32:18;97812.06;;;12.06;75.64
9187;BME280;7273;48.902;9.410;2023-05-11T01:34:46;97816.09;;;12.08;75.24
9187;BME280;7273;48.902;9.410;2023-05-11T01:37:20;97818.34;;;12.01;75.34
9187;BME280;7273;48.902;9.410;2023-05-11T01:39:56;97803.13;;;12.05;75.21
9187;BME280;7273;48.902;9.410;2023-05-11T01:42:29;97810.28;;;11.96;75.04
9187;BME280;7273;48.902;9.410;2023-05-11T01:44:57;97816.16;;;12.03;75.20
9187;BME280;7273;48.902;9.410;2023-05-11T01:47:25;97812.50;;;11.94;75.23
9187;BME280;7273;48.902;9.410;2023-05-11T01:49:52;97810.28;;;11.96;76.35
9187;BME280;7273;48.902;9.410;2023-05-11T01:52:19;97814.63;;;11.97;75.52
9187;BME280;7273;48.902;9.410;2023-05-11T01:54:47;97808.97;;;11.94;75.35
9187;BME280;7273;48.902;9.410;2023-05-11T01:57:14;97817.41;;;11.92;75.40
9187;BME280;7273;48.902;9.410;2023-05-11T01:59:41;97817.41;;;11.92;75.32
9187;BME280;7273;48.902;9.410;2023-05-11T02:02:08;97817.16;;;11.89;75.25
9187;BME280;7273;48.902;9.410;2023-05-11T02:04:36;97815.28;;;11.89;75.29
9187;BME280;7273;48.902;9.410;2023-05-11T02:07:03;97817.41;;;11.92;75.49
9187;BME280;7273;48.902;9.410;2023-05-11T02:09:30;97818.50;;;11.91;75.28
9187;BME280;7273;48.902;9.410;2023-05-11T02:11:57;97818.69;;;11.95;75.15
9187;BME280;7273;48.902;9.410;2023-05-11T02:14:24;97813.56;;;11.93;75.10
9187;BME280;7273;48.902;9.410;2023-05-11T02:16:55;97814.16;;;11.90;75.48
9187;BME280;7273;48.902;9.410;2023-05-11T02:19:21;97819.28;;;11.92;75.34
9187;BME280;7273;48.902;9.410;2023-05-11T02:21:47;97814.47;;;11.89;75.16
9187;BME280;7273;48.902;9.410;2023-05-11T02:24:15;97818.94;;;11.98;76.91
9187;BME280;7273;48.902;9.410;2023-05-11T02:26:41;97820.03;;;11.97;75.70
9187;BME280;7273;48.902;9.410;2023-05-11T02:29:06;97824.66;;;11.97;75.32
9187;BME280;7273;48.902;9.410;2023-05-11T02:31:37;97813.00;;;11.96;75.06
9187;BME280;7273;48.902;9.410;2023-05-11T02:34:13;97820.09;;;11.92;75.44
9187;BME280;7273;48.902;9.410;2023-05-11T02:36:47;97818.28;;;11.88;75.71
9187;BME280;7273;48.902;9.410;2023-05-11T02:39:16;97816.94;;;11.85;75.52
9187;BME280;7273;48.902;9.410;2023-05-11T02:41:48;97816.63;;;11.87;75.79
9187;BME280;7273;48.902;9.410;2023-05-11T02:44:20;97810.94;;;11.88;75.59
9187;BME280;7273;48.902;9.410;2023-05-11T02:46:47;97814.16;;;11.90;75.73
9187;BME280;7273;48.902;9.410;2023-05-11T02:49:17;97814.81;;;11.82;75.74
9187;BME280;7273;48.902;9.410;2023-05-11T02:51:46;97812.03;;;11.87;75.82
9187;BME280;7273;48.902;9.410;2023-05-11T02:54:13;97809.63;;;11.86;75.90
9187;BME280;7273;48.902;9.410;2023-05-11T02:56:40;97811.22;;;11.87;75.67
9187;BME280;7273;48.902;9.410;2023-05-11T02:59:06;97803.69;;;11.84;75.72
9187;BME280;7273;48.902;9.410;2023-05-11T03:01:32;97804.19;;;11.86;75.71
9187;BME280;7273;48.902;9.410;2023-05-11T03:03:58;97809.91;;;11.84;75.85
9187;BME280;7273;48.902;9.410;2023-05-11T03:06:24;97805.38;;;11.80;76.16
9187;BME280;7273;48.902;9.410;2023-05-11T03:08:50;97806.69;;;11.82;76.26
9187;BME280;7273;48.902;9.410;2023-05-11T03:11:16;97808.81;;;11.85;75.96
9187;BME280;7273;48.902;9.410;2023-05-11T03:13:43;97799.38;;;11.83;76.05
9187;BME280;7273;48.902;9.410;2023-05-11T03:16:13;97805.31;;;11.85;76.12
9187;BME280;7273;48.902;9.410;2023-05-11T03:18:39;97804.72;;;11.88;76.20
9187;BME280;7273;48.902;9.410;2023-05-11T03:21:05;97805.03;;;11.86;76.18
9187;BME280;7273;48.902;9.410;2023-05-11T03:23:34;97805.31;;;11.85;76.05
9187;BME280;7273;48.902;9.410;2023-05-11T03:26:00;97806.38;;;11.84;76.16
9187;BME280;7273;48.902;9.410;2023-05-11T03:28:26;97798.25;;;11.84;75.90
9187;BME280;7273;48.902;9.410;2023-05-11T03:30:53;97804.50;;;11.84;76.12
9187;BME280;7273;48.902;9.410;2023-05-11T03:33:19;97803.91;;;11.87;76.18
9187;BME280;7273;48.902;9.410;2023-05-11T03:35:49;97796.66;;;11.83;76.15
9187;BME280;7273;48.902;9.410;2023-05-11T03:38:15;97797.19;;;11.85;76.31
9187;BME280;7273;48.902;9.410;2023-05-11T03:40:42;97799.59;;;11.86;75.99
9187;BME280;7273;48.902;9.410;2023-05-11T03:43:11;97796.66;;;11.83;76.45
9187;BME280;7273;48.902;9.410;2023-05-11T03:45:40;97797.44;;;11.83;76.36
9187;BME280;7273;48.902;9.410;2023-05-11T03:48:07;97807.22;;;11.84;76.32
9187;BME280;7273;48.902;9.410;2023-05-11T03:50:35;97799.66;;;11.81;76.56
9187;BME280;7273;48.902;9.410;2023-05-11T03:53:02;97800.69;;;11.85;76.39
9187;BME280;7273;48.902;9.410;2023-05-11T03:55:28;97793.66;;;11.84;76.28
9187;BME280;7273;48.902;9.410;2023-05-11T03:57:54;97799.91;;;11.85;76.28
9187;BME280;7273;48.902;9.410;2023-05-11T04:00:20;97791.97;;;11.88;76.49
9187;BME280;7273;48.902;9.410;2023-05-11T04:02:46;97802.59;;;11.85;76.39
9187;BME280;7273;48.902;9.410;2023-05-11T04:05:12;97801.78;;;11.84;76.49
9187;BME280;7273;48.902;9.410;2023-05-11T04:07:38;97792.56;;;11.85;76.56
9187;BME280;7273;48.902;9.410;2023-05-11T04:10:04;97794.66;;;11.88;76.57
9187;BME280;7273;48.902;9.410;2023-05-11T04:12:30;97797.97;;;11.85;76.34
9187;BME280;7273;48.902;9.410;2023-05-11T04:14:56;97789.31;;;11.83;76.32
9187;BME280;7273;48.902;9.410;2023-05-11T04:17:21;97793.06;;;11.87;76.39
9187;BME280;7273;48.902;9.410;2023-05-11T04:19:47;97792.56;;;11.85;76.62
9187;BME280;7273;48.902;9.410;2023-05-11T04:22:12;97803.09;;;11.87;76.41
9187;BME280;7273;48.902;9.410;2023-05-11T04:24:38;97795.25;;;11.85;76.37
9187;BME280;7273;48.902;9.410;2023-05-11T04:27:03;97797.19;;;11.85;76.62
9187;BME280;7273;48.902;9.410;2023-05-11T04:29:29;97802.31;;;11.86;76.51
9187;BME280;7273;48.902;9.410;2023-05-11T04:31:54;97786.91;;;11.82;76.69
9187;BME280;7273;48.902;9.410;2023-05-11T04:34:20;97794.47;;;11.85;76.52
9187;BME280;7273;48.902;9.410;2023-05-11T04:36:49;97789.31;;;11.83;76.55
9187;BME280;7273;48.902;9.410;2023-05-11T04:39:15;97792.63;;;11.80;76.66
9187;BME280;7273;48.902;9.410;2023-05-11T04:41:44;97795.25;;;11.85;76.75
9187;BME280;7273;48.902;9.410;2023-05-11T04:44:10;97789.84;;;11.85;76.76
9187;BME280;7273;48.902;9.410;2023-05-11T04:46:36;97790.66;;;11.86;76.75
9187;BME280;7273;48.902;9.410;2023-05-11T04:49:05;97792.84;;;11.84;76.76
9187;BME280;7273;48.902;9.410;2023-05-11T04:51:31;97795.50;;;11.89;76.50
9187;BME280;7273;48.902;9.410;2023-05-11T04:53:56;97796.31;;;11.89;76.67
9187;BME280;7273;48.902;9.410;2023-05-11T04:56:21;97806.56;;;11.92;76.50
9187;BME280;7273;48.902;9.410;2023-05-11T04:58:47;97800.84;;;11.94;76.70
9187;BME280;7273;48.902;9.410;2023-05-11T05:01:12;97795.72;;;11.92;76.71
9187;BME280;7273;48.902;9.410;2023-05-11T05:03:38;97798.94;;;11.94;76.54
9187;BME280;7273;48.902;9.410;2023-05-11T05:06:03;97802.75;;;11.93;76.53
9187;BME280;7273;48.902;9.410;2023-05-11T05:08:29;97802.97;;;11.97;76.60
9187;BME280;7273;48.902;9.410;2023-05-11T05:10:54;97800.53;;;11.95;76.58
9187;BME280;7273;48.902;9.410;2023-05-11T05:13:19;97808.91;;;11.99;76.45
9187;BME280;7273;48.902;9.410;2023-05-11T05:15:45;97807.00;;;11.99;76.30
9187;BME280;7273;48.902;9.410;2023-05-11T05:18:10;97816.44;;;12.02;76.40
9187;BME280;7273;48.902;9.410;2023-05-11T05:20:36;97808.91;;;11.99;76.33
9187;BME280;7273;48.902;9.410;2023-05-11T05:23:01;97816.75;;;12.00;76.33
9187;BME280;7273;48.902;9.410;2023-05-11T05:25:27;97815.44;;;11.98;76.37
9187;BME280;7273;48.902;9.410;2023-05-11T05:27:52;97818.88;;;12.03;76.32
9187;BME280;7273;48.902;9.410;2023-05-11T05:30:18;97822.41;;;12.04;76.30
9187;BME280;7273;48.902;9.410;2023-05-11T05:32:43;97821.81;;;12.07;76.32
9187;BME280;7273;48.902;9.410;2023-05-11T05:35:09;97817.97;;;12.08;76.75
9187;BME280;7273;48.902;9.410;2023-05-11T05:37:34;97819.31;;;12.10;76.51
9187;BME280;7273;48.902;9.410;2023-05-11T05:40:01;97814.50;;;12.07;76.54
9187;BME280;7273;48.902;9.410;2023-05-11T05:42:27;97819.91;;;12.07;76.37
9187;BME280;7273;48.902;9.410;2023-05-11T05:44:52;97822.84;;;12.11;76.50
9187;BME280;7273;48.902;9.410;2023-05-11T05:47:18;97820.63;;;12.13;76.49
9187;BME280;7273;48.902;9.410;2023-05-11T05:49:43;97831.19;;;12.14;76.64
9187;BME280;7273;48.902;9.410;2023-05-11T05:52:09;97832.22;;;12.18;76.58
9187;BME280;7273;48.902;9.410;2023-05-11T05:54:34;97831.09;;;12.19;76.25
9187;BME280;7273;48.902;9.410;2023-05-11T05:57:00;97830.25;;;12.24;76.44
9187;BME280;7273;48.902;9.410;2023-05-11T05:59:25;97829.22;;;12.20;76.24
9187;BME280;7273;48.902;9.410;2023-05-11T06:01:51;97832.09;;;12.29;76.18
9187;BME280;7273;48.902;9.410;2023-05-11T06:04:16;97830.69;;;12.31;76.26
9187;BME280;7273;48.902;9.410;2023-05-11T06:06:42;97836.69;;;12.28;76.43
9187;BME280;7273;48.902;9.410;2023-05-11T06:09:07;97833.16;;;12.28;76.46
9187;BME280;7273;48.902;9.410;2023-05-11T06:11:33;97838.03;;;12.31;76.25
9187;BME280;7273;48.902;9.410;2023-05-11T06:13:58;97834.78;;;12.29;76.51
9187;BME280;7273;48.902;9.410;2023-05-11T06:16:24;97836.56;;;12.38;76.33
9187;BME280;7273;48.902;9.410;2023-05-11T06:18:51;97836.63;;;12.33;76.49
9187;BME280;7273;48.902;9.410;2023-05-11T06:21:16;97841.75;;;12.35;76.58
9187;BME280;7273;48.902;9.410;2023-05-11T06:23:41;97832.78;;;12.34;76.48
9187;BME280;7273;48.902;9.410;2023-05-11T06:26:07;97839.78;;;12.40;76.48
9187;BME280;7273;48.902;9.410;2023-05-11T06:28:32;97837.00;;;12.45;76.60
9187;BME280;7273;48.902;9.410;2023-05-11T06:30:58;97840.06;;;12.39;76.99
9187;BME280;7273;48.902;9.410;2023-05-11T06:33:24;97843.78;;;12.43;76.55
9187;BME280;7273;48.902;9.410;2023-05-11T06:35:49;97838.31;;;12.48;76.67
9187;BME280;7273;48.902;9.410;2023-05-11T06:38:15;97836.94;;;12.50;76.73
9187;BME280;7273;48.902;9.410;2023-05-11T06:40:40;97845.72;;;12.42;77.22
9187;BME280;7273;48.902;9.410;2023-05-11T06:43:05;97839.13;;;12.48;76.74
9187;BME280;7273;48.902;9.410;2023-05-11T06:45:31;97832.22;;;12.56;76.74
9187;BME280;7273;48.902;9.410;2023-05-11T06:47:56;97833.31;;;12.55;76.90
9187;BME280;7273;48.902;9.410;2023-05-11T06:50:22;97834.31;;;12.59;76.81
9187;BME280;7273;48.902;9.410;2023-05-11T06:52:47;97826.78;;;12.56;77.10
9187;BME280;7273;48.902;9.410;2023-05-11T06:55:12;97830.75;;;12.63;76.67
9187;BME280;7273;48.902;9.410;2023-05-11T06:57:38;97836.19;;;12.63;76.86
9187;BME280;7273;48.902;9.410;2023-05-11T07:00:05;97829.94;;;12.63;76.89
9187;BME280;7273;48.902;9.410;2023-05-11T07:02:30;97831.25;;;12.65;76.68
9187;BME280;7273;48.902;9.410;2023-05-11T07:04:56;97836.97;;;12.64;76.69
9187;BME280;7273;48.902;9.410;2023-05-11T07:07:22;97828.34;;;12.62;76.73
9187;BME280;7273;48.902;9.410;2023-05-11T07:09:48;97835.38;;;12.63;76.54
9187;BME280;7273;48.902;9.410;2023-05-11T07:12:13;97841.69;;;12.58;76.83
9187;BME280;7273;48.902;9.410;2023-05-11T07:14:39;97850.13;;;12.57;76.95
9187;BME280;7273;48.902;9.410;2023-05-11T07:17:04;97842.34;;;12.50;77.33
9187;BME280;7273;48.902;9.410;2023-05-11T07:19:30;97843.44;;;12.49;77.20
9187;BME280;7273;48.902;9.410;2023-05-11T07:21:56;97841.53;;;12.50;77.18
9187;BME280;7273;48.902;9.410;2023-05-11T07:24:21;97834.44;;;12.54;77.35
9187;BME280;7273;48.902;9.410;2023-05-11T07:26:47;97848.63;;;12.46;77.86
9187;BME280;7273;48.902;9.410;2023-05-11T07:29:14;97844.84;;;12.47;77.83
9187;BME280;7273;48.902;9.410;2023-05-11T07:31:40;97843.78;;;12.43;77.72
9187;BME280;7273;48.902;9.410;2023-05-11T07:34:05;97838.66;;;12.41;78.15
9187;BME280;7273;48.902;9.410;2023-05-11T07:36:31;97851.03;;;12.47;77.49
9187;BME280;7273;48.902;9.410;2023-05-11T07:38:57;97843.72;;;12.48;77.98
9187;BME280;7273;48.902;9.410;2023-05-11T07:41:23;97848.06;;;12.49;77.89
9187;BME280;7273;48.902;9.410;2023-05-11T07:43:51;97842.19;;;12.42;78.38
9187;BME280;7273;48.902;9.410;2023-05-11T07:46:17;97847.84;;;12.45;78.34
9187;BME280;7273;48.902;9.410;2023-05-11T07:48:42;97845.28;;;12.54;77.47
9187;BME280;7273;48.902;9.410;2023-05-11T07:51:08;97849.66;;;12.50;77.91
9187;BME280;7273;48.902;9.410;2023-05-11T07:53:33;97849.06;;;12.53;77.62
9187;BME280;7273;48.902;9.410;2023-05-11T07:55:59;97847.63;;;12.60;77.47
9187;BME280;7273;48.902;9.410;2023-05-11T07:58:25;97855.47;;;12.62;77.22
9187;BME280;7273;48.902;9.410;2023-05-11T08:00:50;97845.91;;;12.64;77.91
9187;BME280;7273;48.902;9.410;2023-05-11T08:03:16;97855.66;;;12.65;77.80
9187;BME280;7273;48.902;9.410;2023-05-11T08:05:41;97851.66;;;12.63;77.58
9187;BME280;7273;48.902;9.410;2023-05-11T08:08:07;97845.00;;;12.55;78.12
9187;BME280;7273;48.902;9.410;2023-05-11T08:10:34;97849.00;;;12.58;77.91
9187;BME280;7273;48.902;9.410;2023-05-11T08:13:00;97842.97;;;12.61;77.20
9187;BME280;7273;48.902;9.410;2023-05-11T08:15:25;97848.41;;;12.61;77.75
9187;BME280;7273;48.902;9.410;2023-05-11T08:17:51;97852.31;;;12.55;78.23
9187;BME280;7273;48.902;9.410;2023-05-11T08:20:16;97841.22;;;12.51;78.18
9187;BME280;7273;48.902;9.410;2023-05-11T08:22:43;97840.78;;;12.63;77.61
9187;BME280;7273;48.902;9.410;2023-05-11T08:25:08;97845.53;;;12.71;77.43
9187;BME280;7273;48.902;9.410;2023-05-11T08:27:34;97850.44;;;12.69;77.81
9187;BME280;7273;48.902;9.410;2023-05-11T08:29:59;97843.06;;;12.74;77.82
9187;BME280;7273;48.902;9.410;2023-05-11T08:32:25;97844.19;;;12.87;77.52
9187;BME280;7273;48.902;9.410;2023-05-11T08:34:51;97843.34;;;12.91;77.42
9187;BME280;7273;48.902;9.410;2023-05-11T08:37:16;97847.03;;;12.95;77.06
9187;BME280;7273;48.902;9.410;2023-05-11T08:39:42;97848.16;;;12.94;77.83
9187;BME280;7273;48.902;9.410;2023-05-11T08:42:08;97845.59;;;12.84;78.40
9187;BME280;7273;48.902;9.410;2023-05-11T08:44:34;97846.13;;;12.86;77.89
9187;BME280;7273;48.902;9.410;2023-05-11T08:47:02;97853.53;;;12.81;77.51
9187;BME280;7273;48.902;9.410;2023-05-11T08:49:29;97845.59;;;12.84;77.56
9187;BME280;7273;48.902;9.410;2023-05-11T08:51:55;97850.44;;;12.87;77.51
9187;BME280;7273;48.902;9.410;2023-05-11T08:54:21;97846.03;;;12.91;77.81
9187;BME280;7273;48.902;9.410;2023-05-11T08:56:46;97845.81;;;12.88;77.94
9187;BME280;7273;48.902;9.410;2023-05-11T08:59:12;97849.31;;;12.88;78.06
9187;BME280;7273;48.902;9.410;2023-05-11T09:01:39;97856.78;;;12.96;77.47
9187;BME280;7273;48.902;9.410;2023-05-11T09:04:05;97856.16;;;13.04;77.55
9187;BME280;7273;48.902;9.410;2023-05-11T09:06:32;97856.59;;;12.93;78.47
9187;BME280;7273;48.902;9.410;2023-05-11T09:08:58;97855.94;;;13.01;77.67
9187;BME280;7273;48.902;9.410;2023-05-11T09:11:23;97856.97;;;13.05;77.80
9187;BME280;7273;48.902;9.410;2023-05-11T09:13:50;97850.53;;;13.14;77.65
9187;BME280;7273;48.902;9.410;2023-05-11T09:16:16;97848.81;;;13.05;78.14
9187;BME280;7273;48.902;9.410;2023-05-11T09:18:48;97853.63;;;13.08;77.51
9187;BME280;7273;48.902;9.410;2023-05-11T09:21:14;97854.28;;;13.18;77.25
9187;BME280;7273;48.902;9.410;2023-05-11T09:23:40;97852.97;;;13.16;77.62
9187;BME280;7273;48.902;9.410;2023-05-11T09:26:15;97847.16;;;13.22;77.18
9187;BME280;7273;48.902;9.410;2023-05-11T09:28:48;97858.72;;;13.28;77.40
9187;BME280;7273;48.902;9.410;2023-05-11T09:31:36;97856.81;;;13.28;77.13
9187;BME280;7273;48.902;9.410;2023-05-11T09:36:36;97857.66;;;13.29;78.82
9187;BME280;7273;48.902;9.410;2023-05-11T09:39:02;97854.41;;;13.27;78.08
9187;BME280;7273;48.902;9.410;2023-05-11T09:41:31;97852.47;;;13.14;78.14
9187;BME280;7273;48.902;9.410;2023-05-11T09:44:04;97854.53;;;13.35;77.47
9187;BME280;7273;48.902;9.410;2023-05-11T09:46:30;97855.03;;;13.37;77.13
9187;BME280;7273;48.902;9.410;2023-05-11T09:48:59;97850.00;;;13.44;77.07
9187;BME280;7273;48.902;9.410;2023-05-11T09:51:29;97845.78;;;13.52;77.23
9187;BME280;7273;48.902;9.410;2023-05-11T09:53:59;97851.72;;;13.54;77.31
9187;BME280;7273;48.902;9.410;2023-05-11T09:56:48;97857.28;;;13.63;77.28
9187;BME280;7273;48.902;9.410;2023-05-11T09:59:15;97851.31;;;13.61;77.73
9187;BME280;7273;48.902;9.410;2023-05-11T10:01:41;97848.72;;;13.69;77.45
9187;BME280;7273;48.902;9.410;2023-05-11T10:04:06;97853.03;;;13.70;77.12
9187;BME280;7273;48.902;9.410;2023-05-11T10:06:48;97850.03;;;13.72;78.36
9187;BME280;7273;48.902;9.410;2023-05-11T10:09:15;97848.41;;;13.71;77.00
9187;BME280;7273;48.902;9.410;2023-05-11T10:11:45;97850.91;;;13.53;77.34
9187;BME280;7273;48.902;9.410;2023-05-11T10:14:12;97852.03;;;13.52;77.04
9187;BME280;7273;48.902;9.410;2023-05-11T10:16:40;97845.78;;;13.52;77.03
9187;BME280;7273;48.902;9.410;2023-05-11T10:19:06;97853.63;;;13.53;78.88
9187;BME280;7273;48.902;9.410;2023-05-11T10:21:33;97850.22;;;13.48;77.49
9187;BME280;7273;48.902;9.410;2023-05-11T10:23:59;97851.31;;;13.47;77.20
9187;BME280;7273;48.902;9.410;2023-05-11T10:26:25;97842.34;;;13.33;77.72
9187;BME280;7273;48.902;9.410;2023-05-11T10:28:51;97842.34;;;13.33;77.49
9187;BME280;7273;48.902;9.410;2023-05-11T10:31:18;97846.25;;;13.27;77.35
9187;BME280;7273;48.902;9.410;2023-05-11T10:33:50;97841.75;;;13.36;77.29
9187;BME280;7273;48.902;9.410;2023-05-11T10:36:16;97841.66;;;13.41;77.22
9187;BME280;7273;48.902;9.410;2023-05-11T10:38:42;97837.72;;;13.47;77.28
9187;BME280;7273;48.902;9.410;2023-05-11T10:42:01;97836.84;;;13.52;77.51
9187;BME280;7273;48.902;9.410;2023-05-11T10:47:18;97839.56;;;13.65;77.60
9187;BME280;7273;48.902;9.410;2023-05-11T10:56:00;97837.34;;;13.67;77.35
9187;BME280;7273;48.902;9.410;2023-05-11T11:01:43;97831.50;;;13.74;77.32
9187;BME280;7273;48.902;9.410;2023-05-11T11:04:11;97826.38;;;13.72;76.94
9187;BME280;7273;48.902;9.410;2023-05-11T11:06:40;97830.72;;;13.60;77.30
9187;BME280;7273;48.902;9.410;2023-05-11T11:09:11;97830.31;;;13.66;76.89
9187;BME280;7273;48.902;9.410;2023-05-11T11:11:46;97836.25;;;13.68;76.77
9187;BME280;7273;48.902;9.410;2023-05-11T11:14:13;97829.19;;;13.67;77.24
9187;BME280;7273;48.902;9.410;2023-05-11T11:16:39;97825.69;;;13.67;77.25
9187;BME280;7273;48.902;9.410;2023-05-11T11:19:34;97823.84;;;13.62;77.45
9187;BME280;7273;48.902;9.410;2023-05-11T11:22:00;97831.78;;;13.59;77.35
9187;BME280;7273;48.902;9.410;2023-05-11T11:27:01;97825.56;;;13.44;77.39
9187;BME280;7273;48.902;9.410;2023-05-11T11:29:28;97829.88;;;13.45;76.80
9187;BME280;7273;48.902;9.410;2023-05-11T11:31:53;97825.78;;;13.48;76.65
9187;BME280;7273;48.902;9.410;2023-05-11T11:39:20;97827.94;;;13.32;76.76
9187;BME280;7273;48.902;9.410;2023-05-11T11:41:58;97833.19;;;13.42;76.92
9187;BME280;7273;48.902;9.410;2023-05-11T11:44:25;97833.50;;;13.41;76.94
9187;BME280;7273;48.902;9.410;2023-05-11T11:47:09;97828.19;;;13.49;77.02
9187;BME280;7273;48.902;9.410;2023-05-11T11:49:36;97824.03;;;13.52;77.17
9187;BME280;7273;48.902;9.410;2023-05-11T11:52:02;97820.03;;;13.49;76.83
9187;BME280;7273;48.902;9.410;2023-05-11T11:54:42;97821.63;;;13.50;77.07
9187;BME280;7273;48.902;9.410;2023-05-11T12:00:03;97835.53;;;13.63;77.57
9187;BME280;7273;48.902;9.410;2023-05-11T12:02:39;97818.13;;;13.64;77.34
9187;BME280;7273;48.902;9.410;2023-05-11T12:05:12;97830.91;;;13.63;77.39
9187;BME280;7273;48.902;9.410;2023-05-11T12:07:46;97819.03;;;13.73;77.42
9187;BME280;7273;48.902;9.410;2023-05-11T12:10:13;97823.88;;;13.76;77.21
9187;BME280;7273;48.902;9.410;2023-05-11T12:12:39;97817.91;;;13.74;77.34
9187;BME280;7273;48.902;9.410;2023-05-11T12:15:21;97816.59;;;13.85;77.32
9187;BME280;7273;48.902;9.410;2023-05-11T12:17:47;97813.00;;;13.89;77.09
9187;BME280;7273;48.902;9.410;2023-05-11T12:20:13;97813.97;;;13.93;77.00
9187;BME280;7273;48.902;9.410;2023-05-11T12:22:39;97807.50;;;14.03;77.15
9187;BME280;7273;48.902;9.410;2023-05-11T12:25:06;97811.25;;;14.07;77.55
9187;BME280;7273;48.902;9.410;2023-05-11T12:27:32;97805.19;;;13.96;77.72
9187;BME280;7273;48.902;9.410;2023-05-11T12:29:58;97807.91;;;14.10;77.50
9187;BME280;7273;48.902;9.410;2023-05-11T12:32:27;97810.84;;;14.27;76.89
9187;BME280;7273;48.902;9.410;2023-05-11T12:35:00;97813.03;;;14.38;76.83
9187;BME280;7273;48.902;9.410;2023-05-11T12:37:27;97810.06;;;14.48;76.92
9187;BME280;7273;48.902;9.410;2023-05-11T12:39:54;97804.38;;;14.58;76.94
9187;BME280;7273;48.902;9.410;2023-05-11T12:42:20;97801.22;;;14.65;76.67
9187;BME280;7273;48.902;9.410;2023-05-11T12:44:46;97801.28;;;14.73;76.42
9187;BME280;7273;48.902;9.410;2023-05-11T12:47:12;97800.19;;;14.74;76.59
9187;BME280;7273;48.902;9.410;2023-05-11T12:49:40;97798.63;;;14.82;76.59
9187;BME280;7273;48.902;9.410;2023-05-11T12:52:06;97801.66;;;14.80;76.48
9187;BME280;7273;48.902;9.410;2023-05-11T12:54:35;97793.00;;;14.78;76.18
9187;BME280;7273;48.902;9.410;2023-05-11T12:57:03;97791.94;;;14.88;76.00
9187;BME280;7273;48.902;9.410;2023-05-11T13:02:16;97786.56;;;14.97;75.91
9187;BME280;7273;48.902;9.410;2023-05-11T13:04:43;97782.34;;;14.91;75.96
9187;BME280;7273;48.902;9.410;2023-05-11T13:07:10;97776.66;;;15.01;75.88
9187;BME280;7273;48.902;9.410;2023-05-11T13:09:36;97785.94;;;15.00;75.91
9187;BME280;7273;48.902;9.410;2023-05-11T13:12:15;97781.84;;;15.11;75.56
9187;BME280;7273;48.902;9.410;2023-05-11T13:14:49;97774.81;;;15.18;75.45
9187;BME280;7273;48.902;9.410;2023-05-11T13:17:32;97771.16;;;15.23;75.56
9187;BME280;7273;48.902;9.410;2023-05-11T13:20:21;97767.53;;;15.36;75.26
9187;BME280;7273;48.902;9.410;2023-05-11T13:22:49;97770.81;;;15.46;75.24
9187;BME280;7273;48.902;9.410;2023-05-11T13:25:17;97768.41;;;15.53;74.83
9187;BME280;7273;48.902;9.410;2023-05-11T13:27:43;97763.44;;;15.47;74.81
9187;BME280;7273;48.902;9.410;2023-05-11T13:30:09;97752.56;;;15.55;74.00
9187;BME280;7273;48.902;9.410;2023-05-11T13:32:35;97745.38;;;15.59;74.19
9187;BME280;7273;48.902;9.410;2023-05-11T13:35:02;97752.59;;;15.64;74.31
9187;BME280;7273;48.902;9.410;2023-05-11T13:37:27;97754.19;;;15.65;74.00
9187;BME280;7273;48.902;9.410;2023-05-11T13:39:53;97757.41;;;15.67;74.11
9187;BME280;7273;48.902;9.410;2023-05-11T13:42:19;97756.31;;;15.68;74.21
9187;BME280;7273;48.902;9.410;2023-05-11T13:44:44;97749.69;;;15.60;74.09
9187;BME280;7273;48.902;9.410;2023-05-11T13:47:09;97751.00;;;15.63;73.94
9187;BME280;7273;48.902;9.410;2023-05-11T13:49:35;97744.56;;;15.59;73.98
9187;BME280;7273;48.902;9.410;2023-05-11T13:52:01;97745.88;;;15.70;73.84
9187;BME280;7273;48.902;9.410;2023-05-11T13:54:27;97740.72;;;15.68;74.22
9187;BME280;7273;48.902;9.410;2023-05-11T13:56:53;97734.81;;;15.75;73.97